地図

経路データ

SID SEASON NUMBER BASIN SUBBASIN NAME ISO_TIME NATURE LAT LON WMO_WIND WMO_PRES WMO_AGENCY TRACK_TYPE DIST2LAND LANDFALL IFLAG USA_AGENCY USA_ATCF_ID USA_LAT USA_LON USA_RECORD USA_STATUS USA_WIND USA_PRES USA_SSHS USA_R34_NE USA_R34_SE USA_R34_SW USA_R34_NW USA_R50_NE USA_R50_SE USA_R50_SW USA_R50_NW USA_R64_NE USA_R64_SE USA_R64_SW USA_R64_NW USA_POCI USA_ROCI USA_RMW USA_EYE TOKYO_LAT TOKYO_LON TOKYO_GRADE TOKYO_WIND TOKYO_PRES TOKYO_R50_DIR TOKYO_R50_LONG TOKYO_R50_SHORT TOKYO_R30_DIR TOKYO_R30_LONG TOKYO_R30_SHORT TOKYO_LAND CMA_LAT CMA_LON CMA_CAT CMA_WIND CMA_PRES HKO_LAT HKO_LON HKO_CAT HKO_WIND HKO_PRES NEWDELHI_LAT NEWDELHI_LON NEWDELHI_GRADE NEWDELHI_WIND NEWDELHI_PRES NEWDELHI_CI NEWDELHI_DP NEWDELHI_POCI REUNION_LAT REUNION_LON REUNION_TYPE REUNION_WIND REUNION_PRES REUNION_TNUM REUNION_CI REUNION_RMW REUNION_R34_NE REUNION_R34_SE REUNION_R34_SW REUNION_R34_NW REUNION_R50_NE REUNION_R50_SE REUNION_R50_SW REUNION_R50_NW REUNION_R64_NE REUNION_R64_SE REUNION_R64_SW REUNION_R64_NW BOM_LAT BOM_LON BOM_TYPE BOM_WIND BOM_PRES BOM_TNUM BOM_CI BOM_RMW BOM_R34_NE BOM_R34_SE BOM_R34_SW BOM_R34_NW BOM_R50_NE BOM_R50_SE BOM_R50_SW BOM_R50_NW BOM_R64_NE BOM_R64_SE BOM_R64_SW BOM_R64_NW BOM_ROCI BOM_POCI BOM_EYE BOM_POS_METHOD BOM_PRES_METHOD NADI_LAT NADI_LON NADI_CAT NADI_WIND NADI_PRES WELLINGTON_LAT WELLINGTON_LON WELLINGTON_WIND WELLINGTON_PRES DS824_LAT DS824_LON DS824_STAGE DS824_WIND DS824_PRES TD9636_LAT TD9636_LON TD9636_STAGE TD9636_WIND TD9636_PRES TD9635_LAT TD9635_LON TD9635_WIND TD9635_PRES TD9635_ROCI NEUMANN_LAT NEUMANN_LON NEUMANN_CLASS NEUMANN_WIND NEUMANN_PRES MLC_LAT MLC_LON MLC_CLASS MLC_WIND MLC_PRES USA_GUST BOM_GUST BOM_GUST_PER REUNION_GUST REUNION_GUST_PER USA_SEAHGT USA_SEARAD_NE USA_SEARAD_SE USA_SEARAD_SW USA_SEARAD_NW STORM_SPEED STORM_DIR
1938235N14286 1938 41 NA CS NOT_NAMED 1938-08-23 06:00:00 TS 13.9000 -73.8000 45 hurdat_atl main 257 257 O_____________ hurdat_atl AL041938 13.9000 -73.8000 TS 45 0 14 279
1938235N14286 1938 41 NA CS NOT_NAMED 1938-08-23 09:00:00 TS 14.0155 -74.5124 main 315 315 P_____________ AL041938 14.0155 -74.5124 TS 47 0 14 282
1938235N14286 1938 41 NA CS NOT_NAMED 1938-08-23 12:00:00 TS 14.2000 -75.2000 50 hurdat_atl main 353 353 O_____________ hurdat_atl AL041938 14.2000 -75.2000 TS 50 0 14 291
1938235N14286 1938 41 NA CS NOT_NAMED 1938-08-23 15:00:00 TS 14.5047 -75.8502 main 381 322 P_____________ AL041938 14.5047 -75.8502 TS 50 0 14 299
1938235N14286 1938 41 NA CS NOT_NAMED 1938-08-23 18:00:00 TS 14.9000 -76.5000 50 hurdat_atl main 322 268 O_____________ hurdat_atl AL041938 14.9000 -76.5000 TS 50 0 15 303
1938235N14286 1938 41 NA CS NOT_NAMED 1938-08-23 21:00:00 TS 15.3424 -77.1925 main 268 222 P_____________ AL041938 15.3424 -77.1925 TS 52 0 16 304
1938235N14286 1938 41 NA CS NOT_NAMED 1938-08-24 00:00:00 TS 15.8000 -77.9000 55 hurdat_atl main 225 208 O_____________ hurdat_atl AL041938 15.8000 -77.9000 TS 55 0 16 303
1938235N14286 1938 41 NA CS NOT_NAMED 1938-08-24 03:00:00 TS 16.2223 -78.6076 main 212 198 P_____________ AL041938 16.2223 -78.6076 TS 57 0 16 301
1938235N14286 1938 41 NA CS NOT_NAMED 1938-08-24 06:00:00 TS 16.6000 -79.3000 60 hurdat_atl main 202 198 O_____________ hurdat_atl AL041938 16.6000 -79.3000 TS 60 0 15 298
1938235N14286 1938 41 NA CS NOT_NAMED 1938-08-24 09:00:00 TS 16.9223 -79.9727 main 223 216 P_____________ AL041938 16.9223 -79.9727 TS 62 0 14 296
1938235N14286 1938 41 NA CS NOT_NAMED 1938-08-24 12:00:00 TS 17.2000 -80.6000 65 hurdat_atl main 258 258 O_____________ hurdat_atl AL041938 17.2000 -80.6000 HU 65 1 13 295
1938235N14286 1938 41 NA CS NOT_NAMED 1938-08-24 15:00:00 TS 17.4648 -81.1727 main 306 306 P_____________ AL041938 17.4648 -81.1727 HU 67 1 12 295
1938235N14286 1938 41 NA CS NOT_NAMED 1938-08-24 18:00:00 TS 17.7000 -81.7000 70 hurdat_atl main 324 312 O_____________ hurdat_atl AL041938 17.7000 -81.7000 HU 70 1 11 294
1938235N14286 1938 41 NA CS NOT_NAMED 1938-08-24 21:00:00 TS 17.8998 -82.2078 main 317 305 P_____________ AL041938 17.8998 -82.2078 HU 72 1 10 293
1938235N14286 1938 41 NA CS NOT_NAMED 1938-08-25 00:00:00 TS 18.1000 -82.7000 75 hurdat_atl main 308 302 O_____________ hurdat_atl AL041938 18.1000 -82.7000 HU 75 1 10 295
1938235N14286 1938 41 NA CS NOT_NAMED 1938-08-25 03:00:00 TS 18.3423 -83.1926 main 303 303 P_____________ AL041938 18.3423 -83.1926 HU 80 1 11 298
1938235N14286 1938 41 NA CS NOT_NAMED 1938-08-25 06:00:00 TS 18.6000 -83.7000 85 hurdat_atl main 319 316 O_____________ hurdat_atl AL041938 18.6000 -83.7000 HU 85 2 11 297
1938235N14286 1938 41 NA CS NOT_NAMED 1938-08-25 09:00:00 TS 18.8499 -84.2426 main 325 276 P_____________ AL041938 18.8499 -84.2426 HU 90 2 12 296
1938235N14286 1938 41 NA CS NOT_NAMED 1938-08-25 12:00:00 TS 19.1000 -84.8000 95 hurdat_atl main 276 221 O_____________ hurdat_atl AL041938 19.1000 -84.8000 HU 95 2 12 295
1938235N14286 1938 41 NA CS NOT_NAMED 1938-08-25 15:00:00 TS 19.3423 -85.3503 main 210 157 P_____________ AL041938 19.3423 -85.3503 HU 100 3 12 296
1938235N14286 1938 41 NA CS NOT_NAMED 1938-08-25 18:00:00 TS 19.6000 -85.9000 105 hurdat_atl main 157 113 O_____________ hurdat_atl AL041938 19.6000 -85.9000 HU 105 3 12 298
1938235N14286 1938 41 NA CS NOT_NAMED 1938-08-25 21:00:00 TS 19.8921 -86.4278 main 113 45 P_____________ AL041938 19.8921 -86.4278 HU 105 3 12 300
1938235N14286 1938 41 NA CS NOT_NAMED 1938-08-26 00:00:00 TS 20.2000 -87.0000 105 hurdat_atl main 45 0 O_____________ hurdat_atl AL041938 20.2000 -87.0000 HU 105 3 13 297
1938235N14286 1938 41 NA NA NOT_NAMED 1938-08-26 03:00:00 TS 20.5000 -87.6777 main 0 0 P_____________ AL041938 20.5000 -87.6777 HU 92 2 14 295
1938235N14286 1938 41 NA NA NOT_NAMED 1938-08-26 06:00:00 TS 20.8000 -88.4000 80 hurdat_atl main 0 0 O_____________ hurdat_atl AL041938 20.8000 -88.4000 HU 80 1 15 295
1938235N14286 1938 41 NA NA NOT_NAMED 1938-08-26 09:00:00 TS 21.1149 -89.1150 main 0 0 P_____________ AL041938 21.1149 -89.1150 HU 77 1 14 295
1938235N14286 1938 41 NA GM NOT_NAMED 1938-08-26 12:00:00 TS 21.4000 -89.8000 75 979 hurdat_atl main 22 22 O_____________ hurdat_atl AL041938 21.4000 -89.8000 HU 75 979 1 13 292
1938235N14286 1938 41 NA GM NOT_NAMED 1938-08-26 15:00:00 TS 21.6147 -90.4229 main 56 56 P_____________ AL041938 21.6147 -90.4229 HU 77 1 12 290
1938235N14286 1938 41 NA GM NOT_NAMED 1938-08-26 18:00:00 TS 21.8000 -91.0000 80 hurdat_atl main 106 106 O_____________ hurdat_atl AL041938 21.8000 -91.0000 HU 80 1 11 290
1938235N14286 1938 41 NA GM NOT_NAMED 1938-08-26 21:00:00 TS 22.0072 -91.5576 main 167 167 P_____________ AL041938 22.0072 -91.5576 HU 77 1 11 291
1938235N14286 1938 41 NA GM NOT_NAMED 1938-08-27 00:00:00 TS 22.2000 -92.1000 75 hurdat_atl main 222 222 O_____________ hurdat_atl AL041938 22.2000 -92.1000 HU 75 1 11 289
1938235N14286 1938 41 NA GM NOT_NAMED 1938-08-27 03:00:00 TS 22.3573 -92.6502 main 287 287 P_____________ AL041938 22.3573 -92.6502 HU 75 1 11 286
1938235N14286 1938 41 NA GM NOT_NAMED 1938-08-27 06:00:00 TS 22.5000 -93.2000 75 hurdat_atl main 337 337 O_____________ hurdat_atl AL041938 22.5000 -93.2000 HU 75 1 11 286
1938235N14286 1938 41 NA GM NOT_NAMED 1938-08-27 09:00:00 TS 22.6423 -93.7502 main 377 336 P_____________ AL041938 22.6423 -93.7502 HU 75 1 11 286
1938235N14286 1938 41 NA GM NOT_NAMED 1938-08-27 12:00:00 TS 22.8000 -94.3000 75 hurdat_atl main 336 300 O_____________ hurdat_atl AL041938 22.8000 -94.3000 HU 75 1 11 289
1938235N14286 1938 41 NA GM NOT_NAMED 1938-08-27 15:00:00 TS 22.9924 -94.8575 main 292 245 P_____________ AL041938 22.9924 -94.8575 HU 75 1 11 292
1938235N14286 1938 41 NA GM NOT_NAMED 1938-08-27 18:00:00 TS 23.2000 -95.4000 75 hurdat_atl main 245 193 O_____________ hurdat_atl AL041938 23.2000 -95.4000 HU 75 1 11 293
1938235N14286 1938 41 NA GM NOT_NAMED 1938-08-27 21:00:00 TS 23.4073 -95.9076 main 193 142 P_____________ AL041938 23.4073 -95.9076 HU 75 1 10 294
1938235N14286 1938 41 NA GM NOT_NAMED 1938-08-28 00:00:00 TS 23.6000 -96.4000 75 hurdat_atl main 142 91 O_____________ hurdat_atl AL041938 23.6000 -96.4000 HU 75 1 10 291
1938235N14286 1938 41 NA GM NOT_NAMED 1938-08-28 03:00:00 TS 23.7648 -96.9001 main 91 40 P_____________ AL041938 23.7648 -96.9001 HU 75 1 10 288
1938235N14286 1938 41 NA GM NOT_NAMED 1938-08-28 06:00:00 TS 23.9000 -97.4000 75 hurdat_atl main 40 0 O_____________ hurdat_atl AL041938 23.9000 -97.4000 HU 75 1 10 286
1938235N14286 1938 41 NA NA NOT_NAMED 1938-08-28 09:00:00 TS 24.0223 -97.9000 main 0 0 P_____________ AL041938 24.0223 -97.9000 HU 65 1 9 282
1938235N14286 1938 41 NA NA NOT_NAMED 1938-08-28 12:00:00 TS 24.1000 -98.4000 55 hurdat_atl main 0 0 O_____________ hurdat_atl AL041938 24.1000 -98.4000 TS 55 0 9 276
1938235N14286 1938 41 NA NA NOT_NAMED 1938-08-28 15:00:00 TS 24.1148 -98.9002 main 0 0 P_____________ AL041938 24.1148 -98.9002 TS 47 0 9 270
1938235N14286 1938 41 NA NA NOT_NAMED 1938-08-28 18:00:00 TS 24.1000 -99.4000 40 hurdat_atl main 0 0 O_____________ hurdat_atl AL041938 24.1000 -99.4000 TS 40 0 9 269
1938235N14286 1938 41 NA NA NOT_NAMED 1938-08-28 21:00:00 TS 24.0953 -99.8999 main 0 0 P_____________ AL041938 24.0953 -99.8999 TS 32 -1 9 270
1938235N14286 1938 41 NA NA NOT_NAMED 1938-08-29 00:00:00 TS 24.1000 -100.400 25 hurdat_atl main 0 O_____________ hurdat_atl AL041938 24.1000 -100.400 TD 25 -1 9 271

IBTrACS Databaseについて

本データベースは、米国NOAAが公開する1842年以降の世界の熱帯低気圧のベストトラックデータアーカイブInternational Best Track Archive for Climate Stewardship (IBTrACS)を、ウェブで閲覧しやすい形式に変換したものです。

最終更新日:2021-12-03